createdAt,value
2022-08-26T00:00:04.360Z,100348.41
2022-08-26T00:02:42.544Z,100347.19
2022-08-26T00:05:12.512Z,100353.09
2022-08-26T00:07:43.384Z,100351.56
2022-08-26T00:10:13.680Z,100351.41
2022-08-26T00:12:44.116Z,100350.72
2022-08-26T00:15:20.225Z,100356.22
2022-08-26T00:17:50.499Z,100354.69
2022-08-26T00:20:23.508Z,100344.00
2022-08-26T00:22:53.457Z,100345.28
2022-08-26T00:25:23.267Z,100355.34
2022-08-26T00:27:53.176Z,100350.81
2022-08-26T00:30:28.108Z,100365.41
2022-08-26T00:32:58.017Z,100369.25
2022-08-26T00:35:28.518Z,100355.84
2022-08-26T00:37:58.940Z,100360.25
2022-08-26T00:40:32.277Z,100367.19
2022-08-26T00:43:02.248Z,100366.47
2022-08-26T00:45:43.183Z,100374.53
2022-08-26T00:48:13.443Z,100371.00
2022-08-26T00:50:45.967Z,100376.38
2022-08-26T00:53:26.041Z,100387.53
2022-08-26T00:56:01.420Z,100382.59
2022-08-26T00:58:32.741Z,100389.13
2022-08-26T01:01:05.492Z,100385.44
2022-08-26T01:03:37.167Z,100391.13
2022-08-26T01:06:12.510Z,100380.94
2022-08-26T01:08:43.256Z,100390.69
2022-08-26T01:11:13.999Z,100393.22
2022-08-26T01:13:44.189Z,100391.25
2022-08-26T01:16:18.738Z,100397.47
2022-08-26T01:18:50.712Z,100402.28
2022-08-26T01:21:28.035Z,100395.22
2022-08-26T01:24:02.671Z,100388.16
2022-08-26T01:26:36.562Z,100396.22
2022-08-26T01:29:08.369Z,100393.69
2022-08-26T01:31:41.830Z,100407.22
2022-08-26T01:34:16.919Z,100393.38
2022-08-26T01:36:50.705Z,100400.59
2022-08-26T01:39:24.020Z,100407.66
2022-08-26T01:41:57.130Z,100400.03
2022-08-26T01:44:32.580Z,100407.53
2022-08-26T01:47:03.025Z,100409.94
2022-08-26T01:49:37.015Z,100412.94
2022-08-26T01:52:08.323Z,100421.13
2022-08-26T01:54:43.075Z,100422.09
2022-08-26T01:57:17.447Z,100418.88
2022-08-26T01:59:47.148Z,100423.38
2022-08-26T02:02:16.913Z,100423.41
2022-08-26T02:04:49.925Z,100426.25
2022-08-26T02:07:20.661Z,100422.56
2022-08-26T02:09:53.852Z,100434.00
2022-08-26T02:12:23.790Z,100443.06
2022-08-26T02:14:59.125Z,100435.69
2022-08-26T02:17:39.001Z,100438.78
2022-08-26T02:20:13.193Z,100440.22
2022-08-26T02:22:45.450Z,100448.84
2022-08-26T02:25:23.048Z,100452.50
2022-08-26T02:27:56.629Z,100455.19
2022-08-26T02:30:29.085Z,100467.63
2022-08-26T02:33:03.731Z,100459.81
2022-08-26T02:35:34.959Z,100459.41
2022-08-26T02:38:09.827Z,100461.66
2022-08-26T02:40:44.056Z,100461.22
2022-08-26T02:43:14.087Z,100460.22
2022-08-26T02:45:44.343Z,100457.50
2022-08-26T02:48:18.844Z,100462.47
2022-08-26T02:50:48.876Z,100462.47
2022-08-26T02:55:57.427Z,100459.63
2022-08-26T02:58:29.428Z,100456.41
2022-08-26T03:00:59.212Z,100454.41
2022-08-26T03:03:29.247Z,100458.94
2022-08-26T03:06:00.395Z,100454.41
2022-08-26T03:11:02.611Z,100453.88
2022-08-26T03:13:32.892Z,100452.44
2022-08-26T03:18:33.016Z,100454.72
2022-08-26T03:21:08.556Z,100450.75
2022-08-26T03:23:38.486Z,100453.56
2022-08-26T03:26:11.755Z,100455.25
2022-08-26T03:29:02.730Z,100451.13
2022-08-26T03:31:30.377Z,100453.41
2022-08-26T03:34:00.659Z,100454.41
2022-08-26T03:36:30.596Z,100448.19
2022-08-26T03:39:01.026Z,100445.06
2022-08-26T03:41:33.882Z,100449.59
2022-08-26T03:44:04.218Z,100454.25
2022-08-26T03:46:34.624Z,100456.09
2022-08-26T03:49:05.869Z,100454.50
2022-08-26T03:51:38.821Z,100463.28
2022-08-26T03:54:09.582Z,100464.28
2022-08-26T03:56:41.897Z,100464.13
2022-08-26T03:59:11.623Z,100470.19
2022-08-26T04:01:41.858Z,100471.06
2022-08-26T04:04:15.517Z,100466.13
2022-08-26T04:06:46.152Z,100459.78
2022-08-26T04:09:18.563Z,100462.31
2022-08-26T04:11:51.628Z,100464.84
2022-08-26T04:14:23.885Z,100465.69
2022-08-26T04:16:55.331Z,100459.22
2022-08-26T04:19:25.972Z,100459.66
2022-08-26T04:21:56.343Z,100468.16
2022-08-26T04:24:28.881Z,100466.31
2022-08-26T04:27:02.153Z,100474.94
2022-08-26T04:29:32.330Z,100463.22
2022-08-26T04:32:02.978Z,100467.63
2022-08-26T04:34:32.890Z,100475.53
2022-08-26T04:37:03.635Z,100479.91
2022-08-26T04:39:35.909Z,100483.97
2022-08-26T04:42:09.042Z,100481.19
2022-08-26T04:44:39.848Z,100490.78
2022-08-26T04:47:09.703Z,100485.13
2022-08-26T04:49:41.008Z,100489.94
2022-08-26T04:52:11.880Z,100489.66
2022-08-26T04:54:42.319Z,100486.84
2022-08-26T04:57:15.024Z,100490.22
2022-08-26T04:59:45.256Z,100487.97
2022-08-26T05:02:16.265Z,100493.91
2022-08-26T05:04:45.948Z,100498.28
2022-08-26T05:07:15.603Z,100494.34
2022-08-26T05:09:47.377Z,100486.13
2022-08-26T05:12:19.681Z,100489.22
2022-08-26T05:14:49.344Z,100483.00
2022-08-26T05:17:19.050Z,100489.94
2022-08-26T05:19:48.763Z,100472.97
2022-08-26T05:22:20.216Z,100479.88
2022-08-26T05:24:50.131Z,100483.41
2022-08-26T05:27:22.428Z,100483.41
2022-08-26T05:29:54.526Z,100486.53
2022-08-26T05:32:24.504Z,100485.53
2022-08-26T05:34:57.113Z,100495.44
2022-08-26T05:37:28.298Z,100497.13
2022-08-26T05:39:58.106Z,100497.13
2022-08-26T05:42:30.459Z,100493.91
2022-08-26T05:45:00.134Z,100494.88
2022-08-26T05:47:29.824Z,100504.50
2022-08-26T05:50:00.568Z,100499.28
2022-08-26T05:52:30.290Z,100507.03
2022-08-26T05:55:00.148Z,100507.63
2022-08-26T05:57:37.445Z,100504.78
2022-08-26T06:00:11.391Z,100505.31
2022-08-26T06:02:41.892Z,100507.88
2022-08-26T06:05:12.044Z,100511.97
2022-08-26T06:07:54.259Z,100506.31
2022-08-26T06:10:32.856Z,100506.03
2022-08-26T06:13:09.278Z,100505.88
2022-08-26T06:15:45.693Z,100509.69
2022-08-26T06:18:16.853Z,100509.22
2022-08-26T06:20:53.709Z,100511.66
2022-08-26T06:23:40.987Z,100510.34
2022-08-26T06:26:11.015Z,100512.59
2022-08-26T06:28:45.486Z,100512.31
2022-08-26T06:31:15.682Z,100512.03
2022-08-26T06:33:46.046Z,100510.88
2022-08-26T06:36:21.062Z,100519.63
2022-08-26T06:38:51.000Z,100512.25
2022-08-26T06:41:22.985Z,100525.59
2022-08-26T06:43:55.235Z,100525.00
2022-08-26T06:46:25.946Z,100523.31
2022-08-26T06:48:58.178Z,100528.53
2022-08-26T06:51:29.461Z,100529.81
2022-08-26T06:54:00.277Z,100526.81
2022-08-26T06:56:32.337Z,100523.84
2022-08-26T06:59:07.618Z,100526.94
2022-08-26T07:01:43.039Z,100531.34
2022-08-26T07:04:14.565Z,100536.72
2022-08-26T07:06:48.862Z,100529.75
2022-08-26T07:09:19.338Z,100527.63
2022-08-26T07:11:51.789Z,100526.16
2022-08-26T07:14:26.607Z,100531.44
2022-08-26T07:17:01.901Z,100529.72
2022-08-26T07:19:31.980Z,100534.22
2022-08-26T07:22:03.445Z,100531.97
2022-08-26T07:24:35.458Z,100535.34
2022-08-26T07:27:07.385Z,100535.22
2022-08-26T07:29:42.770Z,100542.53
2022-08-26T07:32:13.285Z,100541.91
2022-08-26T07:34:43.919Z,100549.00
2022-08-26T07:37:14.202Z,100551.56
2022-08-26T07:39:44.481Z,100557.78
2022-08-26T07:42:15.897Z,100561.00
2022-08-26T07:44:51.098Z,100558.00
2022-08-26T07:47:25.709Z,100562.63
2022-08-26T07:49:57.973Z,100558.50
2022-08-26T07:52:29.501Z,100563.88
2022-08-26T07:55:01.610Z,100565.28
2022-08-26T07:57:33.780Z,100552.28
2022-08-26T08:00:12.112Z,100560.50
2022-08-26T08:02:44.970Z,100566.72
2022-08-26T08:05:18.489Z,100565.72
2022-08-26T08:07:48.559Z,100565.41
2022-08-26T08:10:26.623Z,100565.13
2022-08-26T08:12:59.089Z,100564.81
2022-08-26T08:15:33.581Z,100557.44
2022-08-26T08:18:06.713Z,100565.50
2022-08-26T08:20:59.283Z,100569.63
2022-08-26T08:23:35.508Z,100568.19
2022-08-26T08:26:05.759Z,100571.97
2022-08-26T08:28:38.062Z,100578.03
2022-08-26T08:31:10.446Z,100577.88
2022-08-26T08:33:40.138Z,100575.88
2022-08-26T08:36:10.538Z,100586.13
2022-08-26T08:38:48.416Z,100582.44
2022-08-26T08:41:32.443Z,100583.44
2022-08-26T08:44:03.492Z,100584.72
2022-08-26T08:46:35.848Z,100588.56
2022-08-26T08:49:07.550Z,100585.88
2022-08-26T08:51:42.842Z,100590.09
2022-08-26T08:54:13.510Z,100592.50
2022-08-26T08:56:45.631Z,100596.22
2022-08-26T08:59:18.161Z,100588.22
2022-08-26T09:01:58.303Z,100589.06
2022-08-26T09:05:15.129Z,100591.03
2022-08-26T09:07:48.857Z,100593.19
2022-08-26T09:10:37.692Z,100593.03
2022-08-26T09:13:16.391Z,100592.75
2022-08-26T09:15:53.520Z,100595.13
2022-08-26T09:18:37.630Z,100592.28
2022-08-26T09:21:09.556Z,100595.28
2022-08-26T09:23:41.944Z,100596.97
2022-08-26T09:26:18.506Z,100601.53
2022-08-26T09:28:50.545Z,100595.81
2022-08-26T09:31:25.172Z,100604.13
2022-08-26T09:34:17.330Z,100600.44
2022-08-26T09:36:49.142Z,100595.06
2022-08-26T09:39:45.379Z,100600.28
2022-08-26T09:42:17.302Z,100593.88
2022-08-26T09:44:58.436Z,100595.06
2022-08-26T09:47:31.678Z,100594.59
2022-08-26T09:50:09.456Z,100585.13
2022-08-26T09:52:40.615Z,100586.81
2022-08-26T09:55:16.074Z,100587.22
2022-08-26T09:57:51.711Z,100590.31
2022-08-26T10:00:30.725Z,100588.53
2022-08-26T10:03:02.618Z,100588.72
2022-08-26T10:05:42.284Z,100581.88
2022-08-26T10:08:23.264Z,100577.03
2022-08-26T10:10:53.794Z,100582.72
2022-08-26T10:13:29.475Z,100575.81
2022-08-26T10:16:05.580Z,100580.34
2022-08-26T10:18:36.592Z,100581.34
2022-08-26T10:21:13.088Z,100585.06
2022-08-26T10:23:45.734Z,100581.81
2022-08-26T10:26:21.036Z,100580.97
2022-08-26T10:28:53.064Z,100584.50
2022-08-26T10:31:30.225Z,100574.56
2022-08-26T10:34:08.337Z,100578.59
2022-08-26T10:37:14.845Z,100575.25
2022-08-26T10:39:49.132Z,100583.03
2022-08-26T10:42:25.957Z,100578.94
2022-08-26T10:45:02.285Z,100571.19
2022-08-26T10:47:37.341Z,100578.59
2022-08-26T10:53:59.623Z,100576.06
2022-08-26T10:56:41.262Z,100576.41
2022-08-26T10:59:16.070Z,100569.88
2022-08-26T11:01:47.038Z,100587.97
2022-08-26T11:04:48.462Z,100582.63
2022-08-26T11:07:37.813Z,100581.63
2022-08-26T11:10:14.019Z,100579.44
2022-08-26T11:12:53.453Z,100580.69
2022-08-26T11:15:53.187Z,100589.44
2022-08-26T11:18:48.746Z,100580.34
2022-08-26T11:22:05.982Z,100579.34
2022-08-26T11:25:03.336Z,100585.44
2022-08-26T11:28:08.575Z,100581.41
2022-08-26T11:30:57.860Z,100573.00
2022-08-26T11:33:51.019Z,100564.38
2022-08-26T11:36:38.259Z,100570.78
2022-08-26T11:39:18.967Z,100572.00
2022-08-26T11:41:52.918Z,100570.31
2022-08-26T11:44:24.819Z,100564.91
2022-08-26T11:46:59.496Z,100565.44
2022-08-26T11:49:29.745Z,100568.28
2022-08-26T11:52:20.737Z,100573.38
2022-08-26T11:55:04.626Z,100558.03
2022-08-26T11:57:36.830Z,100561.22
2022-08-26T12:00:12.529Z,100562.22
2022-08-26T12:02:46.855Z,100565.59
2022-08-26T12:05:20.166Z,100553.81
2022-08-26T12:07:52.462Z,100561.44
2022-08-26T12:10:30.122Z,100560.56
2022-08-26T12:13:01.853Z,100562.78
2022-08-26T12:15:33.152Z,100565.84
2022-08-26T12:18:29.159Z,100567.53
2022-08-26T12:21:02.071Z,100560.28
2022-08-26T12:23:43.877Z,100556.06
2022-08-26T12:26:17.312Z,100553.72
2022-08-26T12:28:48.064Z,100564.34
2022-08-26T12:31:25.122Z,100560.19
2022-08-26T12:33:59.160Z,100554.31
2022-08-26T12:36:32.487Z,100557.19
2022-08-26T12:39:10.438Z,100562.78
2022-08-26T12:41:50.458Z,100563.50
2022-08-26T12:44:39.730Z,100557.59
2022-08-26T12:47:12.118Z,100563.66
2022-08-26T12:49:46.392Z,100565.34
2022-08-26T12:52:30.025Z,100562.34
2022-08-26T12:55:02.673Z,100560.31
2022-08-26T12:57:35.349Z,100567.94
2022-08-26T13:00:40.932Z,100563.22
2022-08-26T13:03:32.197Z,100561.84
2022-08-26T13:06:16.653Z,100563.19
2022-08-26T13:08:47.472Z,100553.41
2022-08-26T13:11:20.651Z,100555.72
2022-08-26T13:13:51.656Z,100548.44
2022-08-26T13:16:21.755Z,100541.72
2022-08-26T13:18:52.799Z,100546.22
2022-08-26T13:21:26.967Z,100543.53
2022-08-26T13:23:57.588Z,100536.63
2022-08-26T13:26:27.395Z,100532.91
2022-08-26T13:29:01.603Z,100542.22
2022-08-26T13:31:32.973Z,100545.28
2022-08-26T13:34:03.669Z,100534.47
2022-08-26T13:36:36.044Z,100530.75
2022-08-26T13:39:08.460Z,100537.69
2022-08-26T13:41:38.445Z,100535.34
2022-08-26T13:44:08.533Z,100537.69
2022-08-26T13:46:39.123Z,100539.59
2022-08-26T13:49:09.131Z,100539.09
2022-08-26T13:51:41.828Z,100544.50
2022-08-26T13:54:11.573Z,100540.97
2022-08-26T13:56:41.312Z,100550.06
2022-08-26T13:59:11.036Z,100552.25
2022-08-26T14:01:40.741Z,100544.78
2022-08-26T14:04:10.433Z,100548.34
2022-08-26T14:06:42.820Z,100542.44
2022-08-26T14:09:12.458Z,100546.31
2022-08-26T14:11:54.632Z,100543.09
2022-08-26T14:14:25.132Z,100555.53
2022-08-26T14:16:59.379Z,100549.25
2022-08-26T14:19:30.559Z,100554.16
2022-08-26T14:22:03.479Z,100549.56
2022-08-26T14:24:33.201Z,100546.88
2022-08-26T14:27:02.905Z,100543.16
2022-08-26T14:29:32.762Z,100547.25
2022-08-26T14:32:06.825Z,100547.41
2022-08-26T14:34:36.786Z,100541.72
2022-08-26T14:37:11.462Z,100543.38
2022-08-26T14:39:43.300Z,100545.91
2022-08-26T14:42:15.128Z,100546.59
2022-08-26T14:44:48.300Z,100532.63
2022-08-26T14:47:18.085Z,100539.22
2022-08-26T14:49:47.782Z,100532.31
2022-08-26T14:52:20.351Z,100531.28
2022-08-26T14:54:47.489Z,100524.94
2022-08-26T14:57:24.525Z,100531.84
2022-08-26T14:59:54.224Z,100530.81
2022-08-26T15:02:32.924Z,100535.56
2022-08-26T15:05:04.109Z,100531.00
2022-08-26T15:07:36.402Z,100530.47
2022-08-26T15:10:07.232Z,100524.56
2022-08-26T15:12:36.936Z,100530.81
2022-08-26T15:15:07.418Z,100519.84
2022-08-26T15:17:37.145Z,100534.34
2022-08-26T15:20:08.355Z,100530.13
2022-08-26T15:22:42.319Z,100526.59
2022-08-26T15:25:13.339Z,100529.44
2022-08-26T15:27:43.111Z,100528.25
2022-08-26T15:30:16.314Z,100524.72
2022-08-26T15:32:46.027Z,100527.56
2022-08-26T15:35:15.715Z,100530.75
2022-08-26T15:37:48.018Z,100533.63
2022-08-26T15:40:18.533Z,100526.34
2022-08-26T15:42:57.502Z,100518.56
2022-08-26T15:45:31.111Z,100531.06
2022-08-26T15:48:02.847Z,100518.91
2022-08-26T15:50:32.876Z,100524.66
2022-08-26T15:53:05.597Z,100517.25
2022-08-26T15:55:35.245Z,100513.69
2022-08-26T15:58:05.146Z,100518.94
2022-08-26T16:00:34.869Z,100509.97
2022-08-26T16:03:06.663Z,100520.09
2022-08-26T16:05:39.111Z,100519.41
2022-08-26T16:08:11.761Z,100518.91
2022-08-26T16:10:47.898Z,100518.22
2022-08-26T16:13:21.164Z,100514.84
2022-08-26T16:15:52.454Z,100509.53
2022-08-26T16:18:23.641Z,100513.81
2022-08-26T16:21:12.821Z,100512.63
2022-08-26T16:23:46.274Z,100520.06
2022-08-26T16:26:17.560Z,100518.81
2022-08-26T16:28:47.479Z,100517.28
2022-08-26T16:31:17.659Z,100523.16
2022-08-26T16:33:47.420Z,100530.41
2022-08-26T16:36:17.638Z,100525.47
2022-08-26T16:38:55.640Z,100531.03
2022-08-26T16:41:25.877Z,100538.97
2022-08-26T16:43:56.095Z,100534.75
2022-08-26T16:46:27.094Z,100540.31
2022-08-26T16:48:57.402Z,100537.78
2022-08-26T16:51:29.101Z,100534.41
2022-08-26T16:54:02.056Z,100538.09
2022-08-26T16:56:34.610Z,100550.03
2022-08-26T16:59:05.074Z,100543.13
2022-08-26T17:01:34.825Z,100538.03
2022-08-26T17:04:04.553Z,100558.94
2022-08-26T17:06:34.228Z,100559.44
2022-08-26T17:09:06.752Z,100559.72
2022-08-26T17:11:36.957Z,100556.69
2022-08-26T17:14:07.657Z,100561.38
2022-08-26T17:16:37.339Z,100563.53
2022-08-26T17:19:08.179Z,100567.25
2022-08-26T17:21:39.016Z,100561.69
2022-08-26T17:24:11.427Z,100564.72
2022-08-26T17:26:44.242Z,100571.78
2022-08-26T17:29:18.108Z,100568.88
2022-08-26T17:31:47.772Z,100574.56
2022-08-26T17:34:17.524Z,100577.13
2022-08-26T17:36:47.279Z,100580.81
2022-08-26T17:39:19.821Z,100579.09
2022-08-26T17:41:49.651Z,100582.13
2022-08-26T17:44:19.356Z,100577.47
2022-08-26T17:46:49.089Z,100580.81
2022-08-26T17:49:18.857Z,100579.59
2022-08-26T17:51:48.559Z,100586.44
2022-08-26T17:54:21.010Z,100575.81
2022-08-26T17:56:50.642Z,100581.22
2022-08-26T17:59:20.504Z,100585.03
2022-08-26T18:01:51.640Z,100584.91
2022-08-26T18:04:21.455Z,100582.66
2022-08-26T18:06:51.144Z,100579.44
2022-08-26T18:09:23.467Z,100585.13
2022-08-26T18:11:53.874Z,100577.34
2022-08-26T18:14:23.523Z,100574.66
2022-08-26T18:16:53.228Z,100579.38
2022-08-26T18:19:23.042Z,100575.66
2022-08-26T18:21:53.071Z,100579.66
2022-08-26T18:24:25.369Z,100576.97
2022-08-26T18:26:54.980Z,100575.28
2022-08-26T18:29:25.416Z,100584.53
2022-08-26T18:31:55.207Z,100575.88
2022-08-26T18:34:25.062Z,100570.34
2022-08-26T18:37:01.511Z,100581.59
2022-08-26T18:39:34.258Z,100585.44
2022-08-26T18:42:04.745Z,100582.88
2022-08-26T18:44:34.473Z,100576.66
2022-08-26T18:47:04.392Z,100582.66
2022-08-26T18:49:34.431Z,100578.81
2022-08-26T18:52:04.304Z,100581.66
2022-08-26T18:54:36.642Z,100585.34
2022-08-26T18:57:06.667Z,100583.78
2022-08-26T18:59:36.899Z,100591.19
2022-08-26T19:02:06.749Z,100586.91
2022-08-26T19:04:38.342Z,100590.34
2022-08-26T19:07:08.428Z,100588.78
2022-08-26T19:09:40.727Z,100590.50
2022-08-26T19:12:11.549Z,100592.75
2022-08-26T19:14:41.870Z,100598.44
2022-08-26T19:17:12.465Z,100593.34
2022-08-26T19:19:42.172Z,100595.91
2022-08-26T19:22:11.873Z,100595.03
2022-08-26T19:24:44.156Z,100599.56
2022-08-26T19:27:15.025Z,100600.03
2022-08-26T19:29:44.953Z,100593.09
2022-08-26T19:32:14.655Z,100603.63
2022-08-26T19:34:44.371Z,100602.63
2022-08-26T19:37:14.059Z,100609.03
2022-08-26T19:39:46.361Z,100610.03
2022-08-26T19:42:16.555Z,100611.00
2022-08-26T19:44:58.907Z,100614.28
2022-08-26T19:47:28.602Z,100607.50
2022-08-26T19:49:59.056Z,100614.19
2022-08-26T19:52:29.903Z,100617.75
2022-08-26T19:55:03.720Z,100616.78
2022-08-26T19:57:33.367Z,100610.66
2022-08-26T20:00:03.100Z,100611.97
2022-08-26T20:02:34.494Z,100618.34
2022-08-26T20:05:05.353Z,100618.66
2022-08-26T20:07:35.189Z,100618.81
2022-08-26T20:10:09.294Z,100618.28
2022-08-26T20:12:38.928Z,100620.66
2022-08-26T20:15:09.756Z,100620.34
2022-08-26T20:17:40.088Z,100620.22
2022-08-26T20:20:32.764Z,100621.34
2022-08-26T20:23:05.213Z,100625.31
2022-08-26T20:25:37.686Z,100622.94
2022-08-26T20:28:11.049Z,100625.06
2022-08-26T20:30:40.897Z,100634.09
2022-08-26T20:33:10.605Z,100635.69
2022-08-26T20:35:40.294Z,100635.69
2022-08-26T20:38:10.461Z,100634.84
2022-08-26T20:40:43.624Z,100641.91
2022-08-26T20:43:13.372Z,100633.00
2022-08-26T20:45:43.065Z,100633.13
2022-08-26T20:48:12.830Z,100646.31
2022-08-26T20:50:42.664Z,100646.56
2022-08-26T20:53:12.337Z,100648.41
2022-08-26T20:55:45.105Z,100645.19
2022-08-26T20:58:14.815Z,100650.13
2022-08-26T21:00:44.499Z,100645.75
2022-08-26T21:03:14.378Z,100647.44
2022-08-26T21:05:44.168Z,100647.44
2022-08-26T21:08:13.818Z,100648.56
2022-08-26T21:10:46.133Z,100647.03
2022-08-26T21:13:16.197Z,100650.97
2022-08-26T21:15:45.873Z,100649.59
2022-08-26T21:18:15.680Z,100648.16
2022-08-26T21:20:45.369Z,100656.38
2022-08-26T21:23:15.077Z,100657.06
2022-08-26T21:25:47.389Z,100659.19
2022-08-26T21:28:17.042Z,100656.78
2022-08-26T21:30:46.731Z,100664.28
2022-08-26T21:33:16.369Z,100669.22
2022-08-26T21:35:54.021Z,100673.75
2022-08-26T21:38:23.818Z,100669.50
2022-08-26T21:41:03.330Z,100670.75
2022-08-26T21:43:35.439Z,100676.56
2022-08-26T21:46:11.559Z,100678.78
2022-08-26T21:48:42.661Z,100680.75
2022-08-26T21:51:13.506Z,100681.06
2022-08-26T21:53:43.391Z,100688.38
2022-08-26T21:56:18.120Z,100681.47
2022-08-26T21:58:47.957Z,100683.69
2022-08-26T22:01:21.936Z,100684.69
2022-08-26T22:03:52.642Z,100682.53
2022-08-26T22:06:25.789Z,100678.75
2022-08-26T22:08:56.336Z,100675.34
2022-08-26T22:11:29.370Z,100674.38
2022-08-26T22:13:59.371Z,100673.94
2022-08-26T22:16:29.455Z,100674.22
2022-08-26T22:18:59.657Z,100675.47
2022-08-26T22:21:30.579Z,100678.28
2022-08-26T22:24:00.888Z,100678.28
2022-08-26T22:26:35.517Z,100676.13
2022-08-26T22:29:06.680Z,100677.97
2022-08-26T22:31:38.758Z,100676.13
2022-08-26T22:34:10.414Z,100688.84
2022-08-26T22:36:43.026Z,100673.75
2022-08-26T22:39:14.473Z,100679.38
2022-08-26T22:41:48.634Z,100681.19
2022-08-26T22:44:19.254Z,100689.22
2022-08-26T22:46:49.772Z,100681.31
2022-08-26T22:49:19.655Z,100689.19
2022-08-26T22:51:49.619Z,100684.94
2022-08-26T22:54:19.389Z,100693.09
2022-08-26T22:56:51.684Z,100684.34
2022-08-26T22:59:21.307Z,100683.50
2022-08-26T23:01:51.634Z,100685.69
2022-08-26T23:04:21.982Z,100685.69
2022-08-26T23:06:51.736Z,100682.91
2022-08-26T23:09:21.760Z,100689.34
2022-08-26T23:11:54.957Z,100688.50
2022-08-26T23:14:24.715Z,100689.78
2022-08-26T23:16:54.663Z,100686.09
2022-08-26T23:19:25.174Z,100689.03
2022-08-26T23:21:54.842Z,100683.94
2022-08-26T23:24:24.503Z,100683.94
2022-08-26T23:26:56.740Z,100683.38
2022-08-26T23:29:26.456Z,100682.78
2022-08-26T23:31:57.181Z,100685.59
2022-08-26T23:34:39.122Z,100680.38
2022-08-26T23:37:09.228Z,100683.19
2022-08-26T23:39:39.074Z,100677.09
2022-08-26T23:42:12.421Z,100668.34
2022-08-26T23:44:42.296Z,100666.16
2022-08-26T23:47:11.964Z,100665.31
2022-08-26T23:49:41.787Z,100672.28
2022-08-26T23:52:24.000Z,100674.34
2022-08-26T23:54:53.932Z,100668.66
2022-08-26T23:57:27.330Z,100670.50
2022-08-26T23:59:57.461Z,100673.31
